Time;durP1;ratioP1;P1;durP2;ratioP2;P2;SDS_P1;SDS_P2;PMS_P1;PMS_P2;Temp;Humidity;BMP_temperature;BMP_pressure;BME280_temperature;BME280_humidity;BME280_pressure;Samples;Min_cycle;Max_cycle;Signal;HPM_P1;HPM_P2
2022/10/09 00:00:37;;;;;;;18.77;17.07;;;10.10;94.40;;;;;;5008481;28;20463;-78
2022/10/09 00:03:06;;;;;;;19.17;17.50;;;10.10;94.80;;;;;;5006701;28;20467;-78
2022/10/09 00:05:33;;;;;;;19.13;17.60;;;10.20;94.30;;;;;;5007785;28;20548;-78
2022/10/09 00:08:00;;;;;;;19.30;17.40;;;10.10;94.20;;;;;;5002398;28;20497;-78
2022/10/09 00:10:28;;;;;;;19.57;18.17;;;10.10;94.20;;;;;;4997427;28;20508;-78
2022/10/09 00:12:55;;;;;;;18.77;17.40;;;10.00;94.40;;;;;;5001507;28;20469;-78
2022/10/09 00:15:23;;;;;;;18.23;16.90;;;10.00;94.90;;;;;;5007561;28;20463;-77
2022/10/09 00:17:50;;;;;;;19.00;17.60;;;10.10;94.90;;;;;;5008381;28;20503;-77
2022/10/09 00:20:19;;;;;;;19.00;17.80;;;10.00;94.60;;;;;;5007800;28;20579;-77
2022/10/09 00:22:45;;;;;;;19.30;17.90;;;10.00;94.60;;;;;;5008662;28;20949;-77
2022/10/09 00:25:13;;;;;;;19.40;18.07;;;9.90;94.70;;;;;;5006946;28;20550;-77
2022/10/09 00:27:40;;;;;;;17.70;16.50;;;9.90;94.80;;;;;;5008961;28;20891;-78
2022/10/09 00:30:08;;;;;;;19.50;18.03;;;9.90;94.90;;;;;;5007239;28;20468;-77
2022/10/09 00:32:35;;;;;;;18.23;16.93;;;9.90;94.90;;;;;;5008004;28;20492;-78
2022/10/09 00:35:01;;;;;;;18.17;17.07;;;9.90;94.70;;;;;;5006776;28;20522;-78
2022/10/09 00:37:30;;;;;;;19.20;17.70;;;9.90;94.10;;;;;;5009308;28;20492;-77
2022/10/09 00:39:57;;;;;;;21.00;17.90;;;9.80;94.20;;;;;;5006588;28;20452;-77
2022/10/09 00:42:25;;;;;;;20.10;18.40;;;9.70;94.50;;;;;;5009286;28;21015;-77
2022/10/09 00:44:56;;;;;;;18.30;17.20;;;9.70;95.30;;;;;;5005766;28;20569;-78
2022/10/09 00:47:29;;;;;;;19.23;17.73;;;9.70;94.90;;;;;;5006049;28;20462;-77
2022/10/09 00:50:01;;;;;;;17.80;16.60;;;9.70;94.90;;;;;;5008311;28;20939;-78
2022/10/09 00:52:28;;;;;;;18.30;17.13;;;9.70;94.90;;;;;;5003945;28;20567;-78
2022/10/09 00:54:57;;;;;;;18.03;16.87;;;9.60;94.90;;;;;;5005176;28;20567;-78
2022/10/09 00:57:25;;;;;;;18.20;16.83;;;9.60;95.10;;;;;;5007304;28;20464;-77
2022/10/09 00:59:52;;;;;;;17.83;16.73;;;9.60;95.40;;;;;;5011974;28;20512;-77
2022/10/09 01:02:19;;;;;;;18.47;17.17;;;9.50;95.00;;;;;;5024000;28;20463;-78
2022/10/09 01:04:46;;;;;;;18.77;17.23;;;9.50;94.60;;;;;;5016179;28;20481;-77
2022/10/09 01:07:34;;;;;;;18.03;16.87;;;9.50;94.40;;;;;;5008985;28;20463;-77
2022/10/09 01:10:13;;;;;;;17.80;16.80;;;9.40;94.50;;;;;;5008571;28;20959;-77
2022/10/09 01:12:47;;;;;;;18.90;17.70;;;9.40;94.50;;;;;;5007982;28;20466;-78
2022/10/09 01:15:19;;;;;;;18.17;17.23;;;9.40;94.60;;;;;;5001943;28;20476;-78
2022/10/09 01:17:55;;;;;;;19.05;17.75;;;9.30;94.70;;;;;;4997087;28;20462;-77
2022/10/09 01:20:37;;;;;;;18.27;17.00;;;9.30;94.40;;;;;;5004289;28;20207;-77
2022/10/09 01:23:22;;;;;;;18.87;17.40;;;9.30;94.60;;;;;;5010423;28;20557;-77
2022/10/09 01:25:59;;;;;;;18.10;16.80;;;9.20;94.90;;;;;;5009362;28;20553;-77
2022/10/09 01:28:30;;;;;;;18.63;17.00;;;9.10;95.00;;;;;;5011243;28;20922;-77
2022/10/09 01:30:59;;;;;;;19.30;17.90;;;9.10;94.90;;;;;;4997687;28;20550;-77
2022/10/09 01:33:28;;;;;;;19.10;17.37;;;9.10;94.70;;;;;;5004842;28;20505;-77
2022/10/09 01:35:55;;;;;;;18.27;17.17;;;9.10;94.70;;;;;;5010550;28;20537;-77
2022/10/09 01:38:24;;;;;;;18.10;17.00;;;9.00;94.80;;;;;;5006452;28;20725;-77
2022/10/09 01:40:53;;;;;;;18.33;16.93;;;9.00;95.00;;;;;;5010056;28;20559;-77
2022/10/09 01:43:20;;;;;;;17.87;16.67;;;8.90;94.80;;;;;;5010524;28;20556;-77
2022/10/09 01:45:49;;;;;;;18.63;17.20;;;9.00;94.60;;;;;;5007387;28;20461;-77
2022/10/09 01:48:22;;;;;;;17.83;16.37;;;9.00;94.50;;;;;;5010195;28;20550;-77
2022/10/09 01:50:55;;;;;;;17.30;16.20;;;9.00;94.70;;;;;;5010996;28;20951;-78
2022/10/09 01:53:24;;;;;;;18.80;17.70;;;8.90;94.60;;;;;;5009783;28;20560;-77
2022/10/09 01:55:58;;;;;;;18.60;17.20;;;8.80;95.10;;;;;;5008546;28;20552;-77
2022/10/09 01:58:33;;;;;;;18.30;17.23;;;8.90;95.40;;;;;;5005809;28;20989;-78
2022/10/09 02:01:05;;;;;;;17.53;16.43;;;8.80;95.30;;;;;;5008191;28;20464;-77
2022/10/09 02:03:34;;;;;;;19.43;18.07;;;8.80;95.10;;;;;;5007592;28;20485;-77
2022/10/09 02:06:03;;;;;;;18.02;16.80;;;8.80;94.90;;;;;;5009320;28;20466;-77
2022/10/09 02:08:31;;;;;;;20.13;18.63;;;8.80;94.60;;;;;;5010413;28;20306;-77
2022/10/09 02:11:01;;;;;;;19.75;18.05;;;8.70;94.50;;;;;;5008558;28;20731;-77
2022/10/09 02:13:28;;;;;;;19.63;18.33;;;8.70;94.80;;;;;;5010470;28;20276;-77
2022/10/09 02:16:06;;;;;;;18.58;17.48;;;8.70;95.00;;;;;;5007528;28;20285;-77
2022/10/09 02:18:38;;;;;;;19.13;17.60;;;8.70;94.90;;;;;;5010537;28;20210;-78
2022/10/09 02:21:10;;;;;;;19.00;17.70;;;8.70;94.70;;;;;;5010535;28;20206;-77
2022/10/09 02:23:39;;;;;;;18.85;17.40;;;8.70;94.90;;;;;;5011065;28;20244;-77
2022/10/09 02:26:07;;;;;;;17.48;16.35;;;8.70;94.60;;;;;;5007923;28;20568;-77
2022/10/09 02:28:35;;;;;;;18.33;16.92;;;8.70;94.30;;;;;;5008711;28;20815;-77
2022/10/09 02:31:09;;;;;;;16.70;15.70;;;8.70;94.60;;;;;;5009833;28;20198;-77
2022/10/09 02:33:37;;;;;;;20.23;18.75;;;8.60;94.70;;;;;;5011273;28;20727;-77
2022/10/09 02:36:04;;;;;;;18.67;16.83;;;8.60;94.90;;;;;;5008341;28;20305;-77
2022/10/09 02:38:31;;;;;;;20.90;19.42;;;8.60;94.70;;;;;;5009391;28;20195;-77
2022/10/09 02:40:59;;;;;;;20.80;16.48;;;8.50;94.60;;;;;;5011512;28;20653;-77
2022/10/09 02:43:26;;;;;;;18.25;17.15;;;8.50;94.60;;;;;;5010849;28;20233;-77
2022/10/09 02:45:53;;;;;;;19.15;17.95;;;8.40;94.90;;;;;;5008657;28;20190;-78
2022/10/09 02:48:21;;;;;;;18.52;17.42;;;8.40;95.00;;;;;;5007298;28;20293;-78
2022/10/09 02:50:48;;;;;;;18.20;16.90;;;8.40;94.90;;;;;;5011747;28;20285;-78
2022/10/09 02:53:15;;;;;;;19.15;17.75;;;8.40;95.00;;;;;;5007717;28;20297;-78
2022/10/09 02:55:42;;;;;;;18.65;17.38;;;8.40;95.10;;;;;;5008646;28;20203;-77
2022/10/09 02:58:09;;;;;;;17.55;16.55;;;8.40;94.90;;;;;;5006635;28;23198;-77
2022/10/09 03:00:37;;;;;;;18.33;16.80;;;8.40;94.50;;;;;;5006216;28;20651;-77
2022/10/09 03:03:04;;;;;;;21.33;18.17;;;8.30;94.10;;;;;;5010750;28;20285;-78
2022/10/09 03:05:33;;;;;;;24.08;22.50;;;8.30;94.40;;;;;;5010310;28;20198;-78
2022/10/09 03:08:00;;;;;;;17.73;16.60;;;8.30;94.30;;;;;;5010328;28;20284;-77
2022/10/09 03:10:27;;;;;;;18.00;16.73;;;8.20;94.50;;;;;;5020626;28;20257;-78
2022/10/09 03:12:53;;;;;;;18.33;17.10;;;8.20;94.90;;;;;;5026436;28;20269;-78
2022/10/09 03:15:20;;;;;;;18.83;17.35;;;8.20;94.80;;;;;;5024665;28;20194;-78
2022/10/09 03:17:47;;;;;;;18.65;17.55;;;8.20;94.80;;;;;;5007743;28;20194;-78
2022/10/09 03:20:14;;;;;;;19.17;17.88;;;8.20;95.00;;;;;;5008457;28;20281;-78
2022/10/09 03:22:43;;;;;;;19.48;18.08;;;8.20;94.80;;;;;;5011475;28;20288;-78
2022/10/09 03:25:10;;;;;;;18.25;17.05;;;8.20;94.50;;;;;;5008246;28;20221;-78
2022/10/09 03:27:36;;;;;;;18.05;16.70;;;8.20;94.20;;;;;;5005612;28;20194;-78
2022/10/09 03:30:04;;;;;;;19.15;17.88;;;8.20;94.20;;;;;;5007396;28;20214;-78
2022/10/09 03:32:31;;;;;;;30.98;29.17;;;8.10;94.60;;;;;;5008553;28;20276;-78
2022/10/09 03:34:58;;;;;;;18.70;17.02;;;8.10;94.40;;;;;;5007636;28;20316;-78
2022/10/09 03:37:25;;;;;;;18.90;17.80;;;8.00;94.40;;;;;;5007046;28;20284;-78
2022/10/09 03:39:55;;;;;;;18.23;16.95;;;8.00;94.30;;;;;;5004855;28;20711;-78
2022/10/09 03:42:22;;;;;;;18.95;17.80;;;8.00;94.60;;;;;;5007849;28;20289;-78
2022/10/09 03:44:49;;;;;;;18.10;16.80;;;8.00;94.60;;;;;;5006970;28;20301;-78
2022/10/09 03:47:16;;;;;;;17.92;16.80;;;7.90;94.40;;;;;;5008161;28;20202;-77
2022/10/09 03:49:43;;;;;;;19.45;18.15;;;7.90;94.80;;;;;;5006487;28;20226;-77
2022/10/09 03:52:10;;;;;;;18.98;17.63;;;7.90;95.00;;;;;;5007643;28;20255;-77
2022/10/09 03:54:37;;;;;;;18.90;17.52;;;7.90;95.00;;;;;;5008368;28;20230;-78
2022/10/09 03:57:05;;;;;;;20.15;18.65;;;7.90;94.80;;;;;;5001971;28;20217;-77
2022/10/09 03:59:32;;;;;;;20.25;19.05;;;7.90;94.70;;;;;;5009179;28;20213;-77
2022/10/09 04:01:59;;;;;;;18.17;16.70;;;7.90;94.50;;;;;;5008574;28;20692;-77
2022/10/09 04:04:26;;;;;;;17.40;16.20;;;7.90;94.60;;;;;;5007352;28;20228;-77
2022/10/09 04:06:53;;;;;;;22.85;21.55;;;7.90;94.50;;;;;;5007758;28;20292;-77
2022/10/09 04:09:20;;;;;;;19.63;18.20;;;7.90;94.40;;;;;;5008084;28;20217;-77
2022/10/09 04:11:47;;;;;;;19.27;17.60;;;7.90;94.20;;;;;;5007775;28;20304;-77
2022/10/09 04:14:15;;;;;;;17.80;16.63;;;7.80;94.30;;;;;;5008014;28;20216;-77
2022/10/09 04:16:42;;;;;;;18.50;17.48;;;7.70;94.80;;;;;;5005383;28;20249;-78
2022/10/09 04:19:10;;;;;;;18.98;17.65;;;7.70;95.00;;;;;;5008095;28;20225;-78
2022/10/09 04:21:37;;;;;;;17.45;16.35;;;7.70;94.90;;;;;;5007415;28;20296;-78
2022/10/09 04:24:07;;;;;;;21.48;20.08;;;7.70;95.10;;;;;;5007779;28;20222;-79
2022/10/09 04:26:34;;;;;;;17.83;16.58;;;7.70;95.30;;;;;;5008368;28;20278;-78
2022/10/09 04:29:01;;;;;;;17.55;16.45;;;7.70;94.80;;;;;;5007762;28;20798;-78
2022/10/09 04:31:29;;;;;;;19.95;18.65;;;7.60;94.70;;;;;;5005649;28;20847;-78
2022/10/09 04:33:56;;;;;;;18.90;17.50;;;7.70;94.70;;;;;;5005590;28;20224;-78
2022/10/09 04:36:23;;;;;;;23.42;22.00;;;7.60;94.90;;;;;;5004621;28;20201;-78
2022/10/09 04:38:51;;;;;;;91.80;24.35;;;7.60;94.90;;;;;;5008940;28;20849;-78
2022/10/09 04:41:18;;;;;;;22.83;20.55;;;7.60;95.10;;;;;;5005918;28;20205;-78
2022/10/09 04:43:45;;;;;;;18.52;17.20;;;7.60;95.60;;;;;;5007517;28;20221;-78
2022/10/09 04:46:14;;;;;;;18.60;17.50;;;7.70;95.10;;;;;;5005714;28;20201;-78
2022/10/09 04:48:44;;;;;;;19.40;18.10;;;7.60;94.80;;;;;;5010069;28;20566;-78
2022/10/09 04:51:11;;;;;;;47.90;19.90;;;7.70;94.60;;;;;;5005575;28;20563;-78
2022/10/09 04:53:39;;;;;;;20.58;18.63;;;7.60;94.70;;;;;;5008423;28;20575;-78
2022/10/09 04:56:08;;;;;;;21.08;19.27;;;7.50;96.10;;;;;;5009661;28;20197;-78
2022/10/09 04:58:36;;;;;;;17.67;16.58;;;7.60;96.10;;;;;;5010093;28;20202;-78
2022/10/09 05:01:06;;;;;;;18.52;17.13;;;7.50;95.90;;;;;;5009142;28;20220;-78
2022/10/09 05:03:33;;;;;;;18.50;17.05;;;7.50;95.80;;;;;;5011530;28;20308;-78
2022/10/09 05:06:03;;;;;;;21.77;20.25;;;7.60;95.70;;;;;;5009577;28;20296;-78
2022/10/09 05:08:31;;;;;;;18.58;17.50;;;7.60;95.60;;;;;;5013021;28;20560;-78
2022/10/09 05:11:00;;;;;;;18.13;16.80;;;7.60;95.20;;;;;;5009829;28;20214;-78
2022/10/09 05:13:29;;;;;;;18.83;17.38;;;7.60;95.00;;;;;;5013142;28;20237;-78
2022/10/09 05:15:56;;;;;;;17.23;16.13;;;7.50;95.00;;;;;;5011478;28;20289;-78
2022/10/09 05:18:23;;;;;;;17.70;16.55;;;7.50;94.70;;;;;;5028679;28;20218;-78
2022/10/09 05:20:50;;;;;;;17.88;16.60;;;7.60;94.50;;;;;;5025172;28;20198;-79
2022/10/09 05:23:18;;;;;;;18.25;17.00;;;7.50;94.70;;;;;;5012800;28;20279;-78
2022/10/09 05:25:54;;;;;;;19.08;17.42;;;7.50;94.60;;;;;;5012591;28;20202;-78
2022/10/09 05:28:21;;;;;;;19.00;17.70;;;7.40;95.00;;;;;;5008327;28;20212;-78
2022/10/09 05:30:48;;;;;;;19.58;18.20;;;7.40;95.30;;;;;;5008227;28;20229;-78
2022/10/09 05:33:15;;;;;;;33.03;31.23;;;7.40;95.30;;;;;;5004607;28;20294;-78
2022/10/09 05:35:49;;;;;;;33.42;31.48;;;7.40;95.30;;;;;;5006106;28;20626;-78
2022/10/09 05:38:17;;;;;;;17.83;16.60;;;7.50;95.00;;;;;;5012502;28;20292;-78
2022/10/09 05:40:51;;;;;;;19.10;17.95;;;7.50;95.10;;;;;;5011121;28;20200;-77
2022/10/09 05:43:18;;;;;;;17.40;16.38;;;7.50;95.00;;;;;;5011164;28;20264;-77
2022/10/09 05:45:45;;;;;;;17.27;16.17;;;7.40;95.10;;;;;;5009232;28;20289;-77
2022/10/09 05:48:12;;;;;;;18.40;16.85;;;7.40;94.80;;;;;;5009441;28;20220;-77
2022/10/09 05:50:39;;;;;;;19.02;17.63;;;7.40;94.40;;;;;;5009527;28;20228;-77
2022/10/09 05:53:06;;;;;;;22.85;21.13;;;7.30;94.30;;;;;;5010786;28;20682;-77
2022/10/09 05:55:34;;;;;;;18.67;17.48;;;7.40;94.30;;;;;;5007345;28;20206;-77
2022/10/09 05:58:01;;;;;;;20.48;19.10;;;7.40;94.40;;;;;;5010271;28;20222;-77
2022/10/09 06:00:28;;;;;;;23.98;22.48;;;7.30;95.20;;;;;;5009348;28;20786;-77
2022/10/09 06:02:55;;;;;;;21.85;20.25;;;7.40;95.10;;;;;;5008474;28;20190;-77
2022/10/09 06:05:22;;;;;;;29.40;27.80;;;7.40;95.00;;;;;;5009925;28;20289;-77
2022/10/09 06:07:49;;;;;;;18.67;17.40;;;7.40;94.90;;;;;;5011722;28;20233;-75
2022/10/09 06:10:16;;;;;;;21.17;19.60;;;7.50;95.00;;;;;;5003641;28;20210;-77
2022/10/09 06:12:44;;;;;;;21.17;19.23;;;7.60;95.00;;;;;;5005744;28;20209;-78
2022/10/09 06:15:11;;;;;;;21.88;20.67;;;7.60;94.70;;;;;;5010549;28;20617;-78
2022/10/09 06:17:38;;;;;;;23.40;21.92;;;7.60;94.20;;;;;;5008172;28;20209;-78
2022/10/09 06:20:06;;;;;;;20.70;19.20;;;7.70;94.00;;;;;;5012572;28;20285;-78
2022/10/09 06:22:33;;;;;;;21.63;20.13;;;7.70;93.50;;;;;;5011794;28;20212;-78
2022/10/09 06:25:00;;;;;;;22.33;20.63;;;7.80;93.30;;;;;;5010863;28;20305;-78
2022/10/09 06:27:28;;;;;;;25.75;23.90;;;7.80;94.10;;;;;;5011150;28;20272;-78
2022/10/09 06:29:56;;;;;;;18.85;17.85;;;7.80;93.20;;;;;;5009355;28;20300;-78
2022/10/09 06:32:23;;;;;;;30.02;28.55;;;7.80;92.80;;;;;;5007259;28;20563;-78
2022/10/09 06:34:52;;;;;;;20.30;18.95;;;7.90;92.60;;;;;;5012539;28;20836;-78
2022/10/09 06:37:19;;;;;;;17.95;16.75;;;7.90;92.50;;;;;;5002577;28;20672;-79
2022/10/09 06:39:49;;;;;;;34.13;32.42;;;8.00;92.20;;;;;;5006553;28;20305;-79
2022/10/09 06:42:16;;;;;;;29.98;28.15;;;8.00;92.60;;;;;;4999712;28;20198;-79
2022/10/09 06:44:44;;;;;;;22.70;21.27;;;8.00;93.10;;;;;;5012179;28;20214;-78
2022/10/09 06:47:12;;;;;;;27.40;25.70;;;8.00;93.30;;;;;;5012335;28;20597;-78
2022/10/09 06:49:39;;;;;;;25.58;23.88;;;8.10;93.10;;;;;;5013303;28;20285;-79
2022/10/09 06:52:06;;;;;;;23.55;22.35;;;8.20;93.00;;;;;;5013393;28;20223;-83
2022/10/09 06:54:33;;;;;;;20.90;19.50;;;8.30;92.80;;;;;;5010327;28;20228;-79
2022/10/09 06:57:00;;;;;;;30.45;28.60;;;8.40;92.80;;;;;;5009232;28;20294;-79
2022/10/09 06:59:27;;;;;;;19.50;18.30;;;8.40;92.30;;;;;;5011679;28;20203;-77
2022/10/09 07:01:55;;;;;;;44.72;42.40;;;8.40;92.40;;;;;;5008746;28;20197;-77
2022/10/09 07:04:23;;;;;;;28.73;26.92;;;8.40;92.60;;;;;;5010881;28;20225;-73
2022/10/09 07:06:50;;;;;;;37.25;34.97;;;8.60;92.40;;;;;;5009745;28;20669;-76
2022/10/09 07:09:17;;;;;;;28.15;26.55;;;8.70;92.00;;;;;;5010626;28;20599;-76
2022/10/09 07:11:47;;;;;;;33.70;31.80;;;8.70;91.80;;;;;;5008202;28;20590;-77
2022/10/09 07:14:15;;;;;;;30.25;28.50;;;8.80;92.00;;;;;;5011281;28;20223;-74
2022/10/09 07:16:44;;;;;;;24.83;23.40;;;9.00;91.80;;;;;;5008473;28;20203;-77
2022/10/09 07:19:12;;;;;;;31.10;28.65;;;9.10;91.50;;;;;;5012629;28;20462;-78
2022/10/09 07:21:42;;;;;;;27.30;25.70;;;9.20;91.20;;;;;;5024965;28;20200;-77
2022/10/09 07:24:10;;;;;;;22.00;20.48;;;9.30;91.20;;;;;;5028936;28;20503;-77
2022/10/09 07:26:39;;;;;;;32.97;30.87;;;9.40;91.10;;;;;;5027868;28;20669;-78
2022/10/09 07:29:08;;;;;;;24.90;23.40;;;9.50;90.80;;;;;;5017004;28;20490;-78
2022/10/09 07:31:35;;;;;;;25.87;24.37;;;9.70;91.00;;;;;;5002703;28;20483;-78
2022/10/09 07:34:05;;;;;;;29.63;27.60;;;9.80;90.70;;;;;;5009436;28;20573;-78
2022/10/09 07:36:32;;;;;;;20.70;19.40;;;9.90;89.90;;;;;;5010162;28;20463;-79
2022/10/09 07:39:00;;;;;;;24.77;23.17;;;9.90;90.00;;;;;;5011021;28;20869;-79
2022/10/09 07:41:29;;;;;;;23.50;21.80;;;10.10;89.80;;;;;;5006061;28;20453;-76
2022/10/09 07:43:56;;;;;;;23.00;21.30;;;10.20;89.50;;;;;;5008167;28;20480;-76
2022/10/09 07:46:24;;;;;;;37.97;35.87;;;10.30;89.40;;;;;;5008931;28;20465;-77
2022/10/09 07:48:52;;;;;;;24.30;22.57;;;10.50;89.10;;;;;;5007571;28;20479;-77
2022/10/09 07:51:21;;;;;;;23.07;21.47;;;10.60;88.80;;;;;;5007771;28;20495;-78
2022/10/09 07:53:48;;;;;;;28.00;26.17;;;10.70;88.40;;;;;;5008524;28;20999;-77
2022/10/09 07:56:19;;;;;;;23.23;21.73;;;10.70;88.40;;;;;;5010090;28;20554;-76
2022/10/09 07:58:49;;;;;;;25.00;23.30;;;10.80;87.70;;;;;;5009294;28;20535;-75
2022/10/09 08:01:16;;;;;;;33.07;30.47;;;10.90;87.40;;;;;;5004906;28;20464;-75
2022/10/09 08:03:43;;;;;;;25.70;23.77;;;11.00;87.20;;;;;;5009166;28;20480;-73
2022/10/09 08:06:10;;;;;;;37.27;35.37;;;11.00;87.10;;;;;;5008629;28;20850;-75
2022/10/09 08:08:37;;;;;;;31.77;29.70;;;11.20;86.80;;;;;;5008046;28;20478;-74
2022/10/09 08:11:09;;;;;;;34.77;32.60;;;11.40;86.30;;;;;;5002967;28;20222;-74
2022/10/09 08:13:37;;;;;;;26.53;24.53;;;11.50;85.10;;;;;;5005244;28;20483;-74
2022/10/09 08:16:04;;;;;;;31.10;29.10;;;11.50;84.00;;;;;;5008091;28;20524;-74
2022/10/09 08:18:31;;;;;;;29.23;27.63;;;11.70;83.40;;;;;;5008304;28;20461;-74
2022/10/09 08:20:59;;;;;;;25.90;24.23;;;11.80;82.90;;;;;;5007825;28;20472;-74
2022/10/09 08:23:26;;;;;;;34.43;32.50;;;11.90;82.30;;;;;;5005169;28;20477;-74
2022/10/09 08:25:53;;;;;;;25.03;23.53;;;11.90;82.20;;;;;;5008871;28;20552;-74
2022/10/09 08:28:20;;;;;;;29.07;26.90;;;11.90;82.00;;;;;;5004009;28;20473;-76
2022/10/09 08:30:48;;;;;;;29.53;27.67;;;12.00;81.80;;;;;;5006905;28;20472;-75
2022/10/09 08:33:19;;;;;;;28.33;26.73;;;12.00;82.40;;;;;;4998420;28;20586;-73
2022/10/09 08:35:46;;;;;;;35.03;33.00;;;12.10;81.70;;;;;;5005696;28;20961;-73
2022/10/09 08:38:13;;;;;;;32.00;29.90;;;12.20;81.10;;;;;;5008535;28;20482;-76
2022/10/09 08:40:52;;;;;;;30.53;28.43;;;12.30;80.20;;;;;;5005675;28;20454;-77
2022/10/09 08:43:26;;;;;;;26.87;24.97;;;12.30;80.20;;;;;;5007394;28;20487;-78
2022/10/09 08:46:13;;;;;;;51.87;48.07;;;12.30;80.50;;;;;;5000674;28;20457;-75
2022/10/09 08:48:44;;;;;;;36.83;34.90;;;12.30;80.60;;;;;;5004287;28;20464;-75
2022/10/09 08:51:18;;;;;;;31.27;29.50;;;12.40;80.00;;;;;;5000353;28;20482;-76
2022/10/09 08:53:50;;;;;;;28.10;26.40;;;12.70;78.80;;;;;;5005662;28;20563;-75
2022/10/09 08:56:17;;;;;;;26.20;24.60;;;12.90;77.90;;;;;;5005087;28;20489;-75
2022/10/09 08:58:44;;;;;;;29.43;27.67;;;13.00;77.30;;;;;;5005840;28;20459;-75
2022/10/09 09:01:20;;;;;;;25.67;23.97;;;13.10;76.80;;;;;;5007359;28;20463;-75
2022/10/09 09:04:16;;;;;;;37.47;34.73;;;13.20;76.60;;;;;;5006792;28;20480;-77
2022/10/09 09:06:50;;;;;;;26.47;24.97;;;13.30;76.00;;;;;;4994458;28;20449;-75
2022/10/09 09:09:26;;;;;;;31.70;30.10;;;13.40;75.70;;;;;;5004729;28;20452;-78
2022/10/09 09:11:58;;;;;;;26.03;24.30;;;13.40;75.90;;;;;;5007214;28;20480;-77
2022/10/09 09:14:39;;;;;;;26.27;24.67;;;13.60;75.00;;;;;;4997281;28;20997;-77
2022/10/09 09:17:18;;;;;;;27.53;25.93;;;13.70;74.60;;;;;;5007646;28;20465;-77
2022/10/09 09:19:56;;;;;;;41.50;39.03;;;13.80;73.50;;;;;;5000986;28;20459;-77
2022/10/09 09:22:25;;;;;;;36.23;34.30;;;13.90;73.20;;;;;;4999170;28;20460;-77
2022/10/09 09:24:53;;;;;;;26.03;24.40;;;14.10;72.90;;;;;;5007607;28;20531;-77
2022/10/09 09:27:22;;;;;;;41.57;39.37;;;14.10;72.00;;;;;;5005990;28;20461;-77
2022/10/09 09:29:55;;;;;;;30.37;28.37;;;14.10;71.70;;;;;;5008432;28;20483;-77
2022/10/09 09:32:26;;;;;;;29.83;28.07;;;14.20;71.50;;;;;;5007601;28;20811;-77
2022/10/09 09:35:03;;;;;;;25.77;24.40;;;14.30;70.90;;;;;;5007033;28;20487;-77
2022/10/09 09:37:29;;;;;;;33.50;31.63;;;14.50;70.20;;;;;;5008681;28;20460;-77
2022/10/09 09:39:57;;;;;;;36.57;34.37;;;14.70;69.70;;;;;;5010318;28;20456;-77
2022/10/09 09:42:24;;;;;;;32.33;30.70;;;14.70;68.40;;;;;;5007802;28;20532;-77
2022/10/09 09:44:59;;;;;;;35.63;33.70;;;14.60;68.60;;;;;;5009103;28;20572;-77
2022/10/09 09:47:33;;;;;;;39.07;36.77;;;14.70;68.00;;;;;;5010258;28;20463;-77
2022/10/09 09:50:02;;;;;;;36.30;34.40;;;14.80;68.60;;;;;;5011122;28;20456;-77
2022/10/09 09:52:35;;;;;;;36.47;34.73;;;14.90;67.00;;;;;;5008196;28;20476;-77
2022/10/09 09:55:02;;;;;;;36.97;35.13;;;14.90;67.20;;;;;;5010064;28;20482;-77
2022/10/09 09:57:34;;;;;;;40.00;38.07;;;15.10;66.30;;;;;;5009671;28;20461;-77
2022/10/09 10:00:10;;;;;;;26.63;25.23;;;15.10;65.80;;;;;;5004396;28;20495;-77
2022/10/09 10:02:38;;;;;;;38.77;36.87;;;15.10;65.20;;;;;;5010241;28;20462;-77
2022/10/09 10:05:17;;;;;;;35.93;33.83;;;15.20;64.20;;;;;;5005918;28;20562;-74
2022/10/09 10:07:48;;;;;;;38.77;36.67;;;15.30;64.10;;;;;;5009091;28;20499;-77
2022/10/09 10:10:19;;;;;;;26.00;24.60;;;15.40;63.60;;;;;;5011555;28;20813;-78
2022/10/09 10:12:48;;;;;;;37.83;35.60;;;15.40;63.50;;;;;;5007471;28;20479;-74
2022/10/09 10:15:21;;;;;;;41.80;39.60;;;15.40;63.90;;;;;;5007456;28;20826;-74
2022/10/09 10:17:57;;;;;;;31.07;29.30;;;15.50;62.70;;;;;;5010041;28;20540;-73
2022/10/09 10:20:24;;;;;;;33.33;31.60;;;15.40;63.30;;;;;;5006353;28;20545;-74
2022/10/09 10:22:52;;;;;;;31.30;29.80;;;15.60;63.00;;;;;;5005881;28;20480;-74
2022/10/09 10:25:23;;;;;;;31.80;30.17;;;15.60;62.30;;;;;;5010392;28;20583;-74
2022/10/09 10:27:52;;;;;;;41.20;38.60;;;15.60;61.80;;;;;;5006436;28;20469;-73
2022/10/09 13:05:49;;;;;;;31.87;30.07;;;16.60;60.10;;;;;;5105945;27;20566;-77
2022/10/09 13:08:28;;;;;;;34.13;32.33;;;16.80;60.00;;;;;;5086900;28;20510;-76
2022/10/09 13:11:07;;;;;;;45.07;42.73;;;17.30;58.90;;;;;;5091339;28;20475;-78
2022/10/09 13:13:34;;;;;;;31.10;29.60;;;17.60;57.90;;;;;;5086663;28;20484;-78
2022/10/09 13:16:05;;;;;;;29.90;28.00;;;17.80;57.40;;;;;;5065457;28;20458;-78
2022/10/09 13:18:35;;;;;;;29.87;28.10;;;17.90;57.40;;;;;;5064325;28;20482;-78
2022/10/09 13:21:06;;;;;;;31.00;29.30;;;18.00;57.10;;;;;;5064489;28;20472;-78
2022/10/09 13:23:34;;;;;;;35.90;34.00;;;18.20;57.10;;;;;;5068170;28;21010;-79
2022/10/09 13:26:04;;;;;;;32.90;31.30;;;18.10;56.80;;;;;;5062132;28;20486;-77
2022/10/09 13:28:31;;;;;;;35.50;33.60;;;18.30;56.80;;;;;;5070558;28;20476;-79
2022/10/09 13:31:06;;;;;;;33.57;31.70;;;18.10;56.20;;;;;;5066270;28;20497;-78
2022/10/09 13:33:33;;;;;;;52.20;49.50;;;18.20;56.20;;;;;;5073636;28;20538;-79
2022/10/09 13:36:01;;;;;;;34.17;32.27;;;18.20;55.80;;;;;;5069996;28;20466;-82
2022/10/09 13:38:29;;;;;;;30.43;28.80;;;17.90;56.80;;;;;;5079014;28;20470;-82
2022/10/09 13:40:57;;;;;;;32.87;31.27;;;18.00;56.90;;;;;;5079362;28;20545;-82
2022/10/09 13:43:26;;;;;;;36.23;34.23;;;17.90;56.70;;;;;;5084443;28;20482;-79
2022/10/09 13:45:53;;;;;;;37.80;35.80;;;17.80;57.30;;;;;;5074797;28;20990;-79
2022/10/09 13:48:20;;;;;;;31.87;29.97;;;18.10;57.40;;;;;;5063393;28;20467;-80
2022/10/09 13:50:50;;;;;;;27.70;26.20;;;18.10;57.10;;;;;;5071383;28;20489;-80
2022/10/09 13:53:17;;;;;;;28.03;26.73;;;18.20;56.60;;;;;;5071058;28;20512;-79
2022/10/09 13:55:45;;;;;;;36.93;34.93;;;18.20;56.40;;;;;;5073619;28;21661;-80
2022/10/09 13:58:12;;;;;;;31.57;29.67;;;18.20;56.40;;;;;;5070117;28;20528;-81
2022/10/09 14:00:39;;;;;;;28.20;26.60;;;18.20;57.50;;;;;;5073144;28;20569;-79
2022/10/09 14:03:06;;;;;;;31.77;30.17;;;18.30;57.20;;;;;;5072648;28;20464;-80
2022/10/09 14:05:33;;;;;;;55.33;52.63;;;18.10;56.80;;;;;;5074628;28;20541;-79
2022/10/09 14:08:09;;;;;;;28.50;27.20;;;17.90;57.70;;;;;;5068318;28;20450;-79
2022/10/09 14:10:40;;;;;;;41.00;38.83;;;17.90;58.50;;;;;;5071113;28;21140;-79
2022/10/09 14:13:09;;;;;;;35.47;33.77;;;17.90;57.70;;;;;;5068983;28;20489;-78
2022/10/09 14:15:39;;;;;;;27.80;26.40;;;17.90;58.40;;;;;;5058013;28;20457;-79
2022/10/09 14:18:06;;;;;;;30.60;29.17;;;18.00;57.70;;;;;;5045251;28;20446;-78
2022/10/09 14:20:34;;;;;;;50.17;47.70;;;18.00;57.70;;;;;;5048502;28;20474;-79
2022/10/09 14:23:01;;;;;;;28.90;27.47;;;18.00;57.50;;;;;;5045509;28;20452;-79
2022/10/09 14:25:28;;;;;;;27.00;25.70;;;18.00;57.90;;;;;;5052690;28;20486;-79
2022/10/09 14:27:55;;;;;;;28.63;27.33;;;17.90;58.30;;;;;;5052158;28;20554;-79
2022/10/09 14:30:23;;;;;;;28.23;26.93;;;18.00;58.10;;;;;;5050886;28;20455;-79
2022/10/09 14:32:50;;;;;;;36.87;35.00;;;17.90;58.60;;;;;;5050722;28;20460;-79
2022/10/09 14:35:17;;;;;;;31.17;29.53;;;18.00;58.30;;;;;;5051976;28;20471;-79
2022/10/09 14:37:44;;;;;;;29.30;28.00;;;18.00;58.20;;;;;;5051818;28;20562;-79
2022/10/09 14:40:11;;;;;;;27.50;26.20;;;18.10;58.20;;;;;;5051273;28;20458;-79
2022/10/09 14:42:39;;;;;;;29.83;28.27;;;18.20;58.10;;;;;;5051956;28;20487;-79
2022/10/09 14:45:07;;;;;;;28.10;26.80;;;18.30;58.20;;;;;;5051258;28;20509;-79
2022/10/09 14:47:36;;;;;;;67.30;64.33;;;18.30;57.80;;;;;;5050940;28;20467;-79
2022/10/09 14:50:04;;;;;;;38.27;36.13;;;18.30;58.10;;;;;;5051248;28;20463;-79
2022/10/09 14:52:31;;;;;;;29.50;28.10;;;18.30;58.30;;;;;;5049356;28;20975;-79
2022/10/09 14:54:58;;;;;;;29.30;27.83;;;18.30;58.40;;;;;;5047531;28;20479;-79
2022/10/09 14:57:25;;;;;;;27.40;26.00;;;18.30;58.80;;;;;;5049282;28;20463;-79
2022/10/09 14:59:52;;;;;;;27.80;26.13;;;18.30;58.70;;;;;;5046887;28;20545;-79
2022/10/09 15:02:19;;;;;;;41.90;39.73;;;18.20;58.70;;;;;;5047677;28;20495;-79
2022/10/09 15:04:47;;;;;;;29.07;27.67;;;18.20;59.30;;;;;;5055749;28;20974;-79
2022/10/09 15:07:14;;;;;;;32.80;31.10;;;18.10;59.40;;;;;;5049700;28;20933;-79
2022/10/09 15:09:41;;;;;;;30.57;28.97;;;18.10;59.70;;;;;;5048114;28;20976;-80
2022/10/09 15:12:08;;;;;;;27.80;26.40;;;18.10;59.50;;;;;;5047694;28;20459;-79
2022/10/09 15:14:34;;;;;;;32.13;30.53;;;17.80;60.20;;;;;;5041600;28;20471;-79
2022/10/09 15:17:01;;;;;;;30.57;28.97;;;17.70;60.90;;;;;;5047810;28;20465;-79